Dundalk Sparrows Point, Maryland
Current Conditions -  °F | °C
As of 5:45 PM on Saturday 25 Oct 2014 (Local Time) from KMTN Reporting Station
Clear Clear  
Wind Chill: 70°   Ceiling: Unl
Heat Index: 70°   Visibility: 10mi
Dew Point: 46°   Wind: 9mph
Humidity: 43%   Direction: 230°SW
Pressure: 29.74"   Gusts: NA
Location:  39.2639°N, 76.497°W
Report Text: KMTN 252145Z 23008KT 10SM SKC 21/08 A2974
Loading
Personal Weather Stations






























Interactive Weather Map
Tropical Storm Tracking
New forecast layout! Learn more

10-Day Weather Forecast

Advertisements
Track Severe Weather on mobile